createdAt,value
2017-09-01T00:01:54.844Z,90.30
2017-09-01T00:04:22.416Z,90.40
2017-09-01T00:06:49.901Z,90.20
2017-09-01T00:09:17.434Z,90.30
2017-09-01T00:11:45.008Z,90.30
2017-09-01T00:14:12.559Z,90.30
2017-09-01T00:16:40.118Z,90.40
2017-09-01T00:19:07.591Z,90.40
2017-09-01T00:21:35.055Z,90.30
2017-09-01T00:24:02.531Z,90.20
2017-09-01T00:26:30.859Z,90.10
2017-09-01T00:28:58.411Z,90.20
2017-09-01T00:31:26.795Z,90.10
2017-09-01T00:33:54.357Z,90.10
2017-09-01T00:36:21.921Z,90.00
2017-09-01T00:38:49.396Z,90.00
2017-09-01T00:41:16.930Z,90.00
2017-09-01T00:43:44.484Z,89.70
2017-09-01T00:46:11.944Z,89.80
2017-09-01T00:48:39.503Z,89.60
2017-09-01T00:51:07.059Z,89.60
2017-09-01T00:53:34.674Z,89.50
2017-09-01T00:56:02.351Z,89.40
2017-09-01T00:58:29.845Z,89.40
2017-09-01T01:00:57.303Z,89.70
2017-09-01T01:03:24.860Z,89.50
2017-09-01T01:05:52.336Z,89.50
2017-09-01T01:08:19.794Z,89.20
2017-09-01T01:10:48.040Z,88.80
2017-09-01T01:13:15.501Z,88.80
2017-09-01T01:15:43.114Z,88.70
2017-09-01T01:18:10.582Z,88.60
2017-09-01T01:20:38.059Z,88.60
2017-09-01T01:23:05.515Z,88.50
2017-09-01T01:25:32.987Z,88.40
2017-09-01T01:28:01.160Z,88.30
2017-09-01T01:30:28.714Z,88.60
2017-09-01T01:32:56.193Z,89.60
2017-09-01T01:35:24.464Z,89.00
2017-09-01T01:37:52.014Z,88.80
2017-09-01T01:40:19.480Z,89.40
2017-09-01T01:42:47.708Z,90.00
2017-09-01T01:45:16.024Z,90.00
2017-09-01T01:47:43.486Z,90.10
2017-09-01T01:50:11.719Z,90.20
2017-09-01T01:52:39.207Z,90.20
2017-09-01T01:55:06.682Z,90.20
2017-09-01T01:57:34.980Z,90.30
2017-09-01T02:00:02.552Z,90.30
2017-09-01T02:02:30.056Z,90.40
2017-09-01T02:04:57.611Z,90.30
2017-09-01T02:07:25.074Z,90.20
2017-09-01T02:09:52.542Z,90.20
2017-09-01T02:12:20.926Z,90.40
2017-09-01T02:14:49.195Z,90.60
2017-09-01T02:17:17.463Z,90.80
2017-09-01T02:19:45.020Z,90.80
2017-09-01T02:22:12.581Z,90.90
2017-09-01T02:24:40.088Z,91.10
2017-09-01T02:27:07.547Z,91.20
2017-09-01T02:29:35.044Z,91.10
2017-09-01T02:32:02.603Z,91.30
2017-09-01T02:34:30.982Z,91.40
2017-09-01T02:36:58.461Z,91.50
2017-09-01T02:39:26.001Z,91.50
2017-09-01T02:41:53.451Z,91.60
2017-09-01T02:44:21.489Z,91.60
2017-09-01T02:46:48.963Z,91.60
2017-09-01T02:49:16.539Z,91.60
2017-09-01T02:51:44.016Z,91.50
2017-09-01T02:54:11.492Z,91.60
2017-09-01T02:56:38.952Z,91.60
2017-09-01T02:59:07.183Z,91.50
2017-09-01T03:01:34.744Z,91.40
2017-09-01T03:04:02.311Z,91.40
2017-09-01T03:06:29.976Z,91.40
2017-09-01T03:08:57.451Z,91.00
2017-09-01T03:11:24.979Z,91.30
2017-09-01T03:13:52.453Z,91.10
2017-09-01T03:16:19.933Z,91.20
2017-09-01T03:18:47.446Z,91.20
2017-09-01T03:21:14.916Z,91.10
2017-09-01T03:23:42.390Z,91.10
2017-09-01T03:26:09.925Z,91.10
2017-09-01T03:28:37.455Z,91.00
2017-09-01T03:31:05.369Z,91.10
2017-09-01T03:33:32.828Z,91.20
2017-09-01T03:36:01.060Z,91.30
2017-09-01T03:38:28.543Z,91.30
2017-09-01T03:40:56.100Z,91.40
2017-09-01T03:43:23.562Z,91.80
2017-09-01T03:45:51.044Z,91.50
2017-09-01T03:48:18.516Z,91.90
2017-09-01T03:50:45.982Z,91.80
2017-09-01T03:53:13.493Z,92.00
2017-09-01T03:55:40.955Z,92.10
2017-09-01T03:58:08.423Z,92.20
2017-09-01T04:00:36.007Z,92.40
2017-09-01T04:03:03.516Z,92.30
2017-09-01T04:05:30.982Z,92.40
2017-09-01T04:07:59.071Z,92.60
2017-09-01T04:10:26.651Z,92.70
2017-09-01T04:12:54.115Z,92.80
2017-09-01T04:15:21.584Z,92.60
2017-09-01T04:17:49.058Z,92.60
2017-09-01T04:20:16.643Z,92.70
2017-09-01T04:22:44.224Z,92.60
2017-09-01T04:25:11.749Z,92.70
2017-09-01T04:27:39.313Z,92.80
2017-09-01T04:30:07.243Z,92.80
2017-09-01T04:32:34.706Z,92.80
2017-09-01T04:35:02.175Z,92.60
2017-09-01T04:37:29.655Z,92.60
2017-09-01T04:39:57.203Z,92.70
2017-09-01T04:42:24.668Z,92.70
2017-09-01T04:44:52.247Z,92.70
2017-09-01T04:47:20.776Z,92.50
2017-09-01T04:49:48.476Z,92.80
2017-09-01T04:52:16.019Z,92.90
2017-09-01T04:54:43.579Z,92.80
2017-09-01T04:57:11.055Z,92.70
2017-09-01T04:59:39.315Z,92.60
2017-09-01T05:02:06.774Z,92.60
2017-09-01T05:04:34.262Z,92.50
2017-09-01T05:07:01.791Z,92.70
2017-09-01T05:09:30.062Z,93.10
2017-09-01T05:11:57.530Z,92.90
2017-09-01T05:14:26.643Z,93.00
2017-09-01T05:16:54.599Z,93.20
2017-09-01T05:19:22.165Z,93.00
2017-09-01T05:21:49.691Z,93.10
2017-09-01T05:24:17.157Z,92.60
2017-09-01T05:26:44.623Z,92.60
2017-09-01T05:29:12.173Z,92.70
2017-09-01T05:31:40.339Z,92.70
2017-09-01T05:34:07.812Z,93.20
2017-09-01T05:36:35.317Z,92.90
2017-09-01T05:39:02.776Z,93.10
2017-09-01T05:41:30.248Z,93.00
2017-09-01T05:43:57.744Z,93.00
2017-09-01T05:46:25.971Z,92.80
2017-09-01T05:48:53.458Z,92.80
2017-09-01T05:51:20.970Z,92.60
2017-09-01T05:53:48.440Z,92.50
2017-09-01T05:56:15.923Z,92.50
2017-09-01T05:58:43.406Z,92.40
2017-09-01T06:01:11.643Z,92.30
2017-09-01T06:03:39.220Z,92.30
2017-09-01T06:06:07.499Z,92.20
2017-09-01T06:08:35.880Z,92.20
2017-09-01T06:11:04.116Z,92.60
2017-09-01T06:13:31.591Z,92.30
2017-09-01T06:15:59.064Z,92.40
2017-09-01T06:18:26.546Z,92.60
2017-09-01T06:20:54.792Z,92.80
2017-09-01T06:23:22.260Z,92.80
2017-09-01T06:25:50.528Z,92.30
2017-09-01T06:28:18.080Z,92.30
2017-09-01T06:30:45.648Z,92.70
2017-09-01T06:33:13.124Z,92.40
2017-09-01T06:35:40.599Z,92.10
2017-09-01T06:38:08.157Z,92.30
2017-09-01T06:40:35.671Z,92.20
2017-09-01T06:43:03.223Z,91.70
2017-09-01T06:45:30.787Z,91.40
2017-09-01T06:47:58.267Z,91.60
2017-09-01T06:50:25.808Z,91.40
2017-09-01T06:52:53.371Z,91.10
2017-09-01T06:55:20.844Z,90.60
2017-09-01T06:57:49.099Z,90.40
2017-09-01T07:00:16.647Z,90.40
2017-09-01T07:02:44.115Z,90.10
2017-09-01T07:05:11.576Z,90.40
2017-09-01T07:07:39.048Z,90.00
2017-09-01T07:10:06.579Z,89.60
2017-09-01T07:12:34.147Z,88.70
2017-09-01T07:15:02.928Z,88.00
2017-09-01T07:17:30.494Z,87.30
2017-09-01T07:19:58.052Z,87.50
2017-09-01T07:22:25.535Z,86.60
2017-09-01T07:24:53.024Z,86.10
2017-09-01T07:27:21.484Z,86.50
2017-09-01T07:29:48.951Z,85.10
2017-09-01T07:32:16.440Z,85.00
2017-09-01T07:34:43.953Z,85.20
2017-09-01T07:37:11.521Z,85.20
2017-09-01T07:39:39.000Z,86.10
2017-09-01T07:42:06.544Z,85.60
2017-09-01T07:44:34.039Z,85.80
2017-09-01T07:47:02.417Z,86.80
2017-09-01T07:49:29.888Z,86.10
2017-09-01T07:51:57.371Z,85.80
2017-09-01T07:54:24.904Z,86.60
2017-09-01T07:56:52.388Z,84.60
2017-09-01T07:59:19.919Z,85.60
2017-09-01T08:01:47.469Z,83.80
2017-09-01T08:04:25.888Z,82.50
2017-09-01T08:06:53.352Z,82.10
2017-09-01T08:09:21.341Z,82.00
2017-09-01T08:11:48.864Z,81.80
2017-09-01T08:14:16.435Z,80.00
2017-09-01T08:16:43.983Z,79.30
2017-09-01T08:19:11.584Z,78.50
2017-09-01T08:21:39.048Z,77.30
2017-09-01T08:24:06.633Z,75.40
2017-09-01T08:26:34.110Z,74.10
2017-09-01T08:29:01.622Z,72.10
2017-09-01T08:31:29.134Z,71.90
2017-09-01T08:33:56.686Z,72.70
2017-09-01T08:36:24.253Z,71.50
2017-09-01T08:38:51.724Z,70.50
2017-09-01T08:41:19.211Z,70.30
2017-09-01T08:43:46.699Z,70.30
2017-09-01T08:46:14.179Z,70.80
2017-09-01T08:48:42.338Z,70.30
2017-09-01T08:51:09.917Z,72.30
2017-09-01T08:53:37.373Z,68.80
2017-09-01T08:56:04.923Z,67.70
2017-09-01T08:58:32.419Z,67.10
2017-09-01T09:01:00.148Z,68.00
2017-09-01T09:03:27.615Z,66.50
2017-09-01T09:05:55.159Z,68.80
2017-09-01T09:08:22.634Z,69.60
2017-09-01T09:10:50.112Z,67.50
2017-09-01T09:13:17.609Z,67.10
2017-09-01T09:15:45.087Z,66.00
2017-09-01T09:18:12.570Z,67.40
2017-09-01T09:20:40.071Z,67.10
2017-09-01T09:23:07.559Z,68.50
2017-09-01T09:25:35.035Z,68.40
2017-09-01T09:28:02.517Z,67.00
2017-09-01T09:30:30.027Z,68.20
2017-09-01T09:32:57.591Z,66.00
2017-09-01T09:35:25.147Z,65.60
2017-09-01T09:37:52.725Z,66.30
2017-09-01T09:40:20.187Z,67.00
2017-09-01T09:42:47.679Z,67.60
2017-09-01T09:45:15.147Z,65.30
2017-09-01T09:47:42.668Z,67.00
2017-09-01T09:50:10.207Z,66.60
2017-09-01T09:52:37.667Z,66.80
2017-09-01T09:55:05.209Z,67.00
2017-09-01T09:57:32.682Z,68.10
2017-09-01T10:00:00.495Z,67.90
2017-09-01T10:02:27.957Z,68.10
2017-09-01T10:04:55.431Z,67.30
2017-09-01T10:07:22.910Z,67.70
2017-09-01T10:09:50.456Z,68.70
2017-09-01T10:12:18.226Z,69.70
2017-09-01T10:14:45.691Z,68.60
2017-09-01T10:17:13.248Z,69.30
2017-09-01T10:19:40.739Z,68.50
2017-09-01T10:22:08.197Z,67.80
2017-09-01T10:24:35.720Z,68.20
2017-09-01T10:27:03.195Z,69.10
2017-09-01T10:29:30.687Z,68.80
2017-09-01T10:31:58.189Z,68.20
2017-09-01T10:34:25.664Z,70.00
2017-09-01T10:36:53.139Z,69.90
2017-09-01T10:39:20.662Z,69.90
2017-09-01T10:41:48.135Z,70.20
2017-09-01T10:44:15.624Z,70.60
2017-09-01T10:46:43.191Z,71.20
2017-09-01T10:49:37.720Z,73.30
2017-09-01T10:52:17.032Z,72.50
2017-09-01T10:54:56.399Z,73.40
2017-09-01T10:57:35.681Z,73.40
2017-09-01T11:00:03.179Z,73.30
2017-09-01T11:02:30.735Z,73.20
2017-09-01T11:04:58.319Z,73.50
2017-09-01T11:07:25.784Z,73.20
2017-09-01T11:09:53.344Z,72.90
2017-09-01T11:12:21.156Z,72.50
2017-09-01T11:14:48.640Z,70.70
2017-09-01T11:17:16.117Z,68.50
2017-09-01T11:19:49.345Z,68.60
2017-09-01T11:22:22.516Z,67.20
2017-09-01T11:24:50.012Z,65.70
2017-09-01T11:27:17.796Z,66.30
2017-09-01T11:29:45.259Z,64.40
2017-09-01T11:32:12.816Z,64.50
2017-09-01T11:34:40.375Z,63.80
2017-09-01T11:37:08.460Z,63.00
2017-09-01T11:39:36.699Z,60.00
2017-09-01T11:42:04.582Z,60.00
2017-09-01T11:44:32.156Z,58.70
2017-09-01T11:47:00.419Z,58.60
2017-09-01T11:49:27.889Z,58.60
2017-09-01T11:51:56.119Z,56.40
2017-09-01T11:54:23.708Z,56.40
2017-09-01T11:56:51.177Z,56.10
2017-09-01T11:59:19.772Z,57.20
2017-09-01T12:01:47.509Z,57.20
2017-09-01T12:04:14.975Z,57.40
2017-09-01T12:06:43.415Z,54.60
2017-09-01T12:09:10.887Z,54.60
2017-09-01T12:11:38.360Z,55.00
2017-09-01T12:14:05.922Z,53.60
2017-09-01T12:16:33.480Z,53.50
2017-09-01T12:19:00.960Z,55.10
2017-09-01T12:21:28.492Z,53.70
2017-09-01T12:23:56.073Z,53.50
2017-09-01T12:26:23.530Z,53.90
2017-09-01T12:28:51.768Z,52.30
2017-09-01T12:31:19.232Z,52.30
2017-09-01T12:33:46.746Z,50.70
2017-09-01T12:36:14.989Z,52.20
2017-09-01T12:38:42.524Z,53.10
2017-09-01T12:41:10.000Z,54.60
2017-09-01T12:43:37.454Z,54.80
2017-09-01T12:46:05.745Z,54.20
2017-09-01T12:48:33.284Z,54.20
2017-09-01T12:51:00.888Z,53.50
2017-09-01T12:53:28.368Z,54.10
2017-09-01T12:55:56.637Z,54.50
2017-09-01T12:58:24.110Z,54.40
2017-09-01T13:00:51.955Z,54.80
2017-09-01T13:03:19.453Z,55.90
2017-09-01T13:05:46.915Z,56.00
2017-09-01T13:08:14.668Z,55.40
2017-09-01T13:10:42.156Z,55.80
2017-09-01T13:13:09.648Z,55.90
2017-09-01T13:15:37.139Z,55.60
2017-09-01T13:18:04.613Z,57.00
2017-09-01T13:20:32.887Z,58.30
2017-09-01T13:23:00.370Z,58.30
2017-09-01T13:25:27.861Z,58.20
2017-09-01T13:27:55.360Z,58.70
2017-09-01T13:30:22.816Z,58.60
2017-09-01T13:32:51.110Z,57.90
2017-09-01T13:35:18.604Z,57.80
2017-09-01T13:37:46.067Z,60.50
2017-09-01T13:40:13.545Z,64.00
2017-09-01T13:42:41.073Z,66.00
2017-09-01T13:45:08.580Z,68.00
2017-09-01T13:47:36.104Z,69.20
2017-09-01T13:50:03.679Z,69.40
2017-09-01T13:52:31.241Z,66.90
2017-09-01T13:54:58.779Z,67.70
2017-09-01T13:57:26.265Z,68.70
2017-09-01T13:59:53.736Z,68.10
2017-09-01T14:02:21.215Z,67.60
2017-09-01T14:04:49.920Z,67.10
2017-09-01T14:07:17.860Z,69.00
2017-09-01T14:09:45.397Z,69.20
2017-09-01T14:12:12.888Z,70.00
2017-09-01T14:14:40.401Z,69.60
2017-09-01T14:17:07.869Z,70.80
2017-09-01T14:19:35.424Z,70.60
2017-09-01T14:22:02.889Z,68.60
2017-09-01T14:24:30.424Z,69.10
2017-09-01T14:26:57.952Z,68.70
2017-09-01T14:29:25.411Z,66.00
2017-09-01T14:31:53.227Z,64.20
2017-09-01T14:34:20.775Z,64.80
2017-09-01T14:36:49.131Z,64.80
2017-09-01T14:39:17.416Z,62.50
2017-09-01T14:41:44.886Z,61.60
2017-09-01T14:44:12.342Z,60.60
2017-09-01T14:46:39.876Z,60.80
2017-09-01T14:49:07.364Z,60.50
2017-09-01T14:51:35.551Z,60.10
2017-09-01T14:54:03.017Z,60.00
2017-09-01T14:56:30.499Z,61.60
2017-09-01T14:58:57.983Z,60.00
2017-09-01T15:01:25.449Z,62.20
2017-09-01T15:03:52.916Z,59.90
2017-09-01T15:06:20.371Z,60.10
2017-09-01T15:08:47.916Z,61.20
2017-09-01T15:11:15.397Z,62.30
2017-09-01T15:13:43.648Z,61.70
2017-09-01T15:16:11.266Z,61.90
2017-09-01T15:18:38.738Z,61.40
2017-09-01T15:21:06.204Z,60.80
2017-09-01T15:23:33.736Z,61.80
2017-09-01T15:26:01.275Z,60.80
2017-09-01T15:28:28.736Z,59.50
2017-09-01T15:30:56.267Z,59.40
2017-09-01T15:33:24.687Z,59.00
2017-09-01T15:35:52.165Z,59.00
2017-09-01T15:38:19.798Z,57.30
2017-09-01T15:40:47.603Z,57.10
2017-09-01T15:43:15.072Z,58.50
2017-09-01T15:45:42.531Z,59.50
2017-09-01T15:48:10.292Z,59.70
2017-09-01T15:50:37.775Z,61.10
2017-09-01T15:53:06.513Z,60.50
2017-09-01T15:55:34.087Z,60.30
2017-09-01T15:58:01.563Z,59.90
2017-09-01T16:00:29.117Z,62.80
2017-09-01T16:02:56.671Z,62.80
2017-09-01T16:05:24.140Z,62.80
2017-09-01T16:07:52.391Z,62.10
2017-09-01T16:10:20.158Z,62.10
2017-09-01T16:12:47.737Z,61.10
2017-09-01T16:15:15.228Z,60.70
2017-09-01T16:17:42.748Z,63.30
2017-09-01T16:20:10.256Z,63.30
2017-09-01T16:22:37.844Z,62.70
2017-09-01T16:25:05.332Z,64.10
2017-09-01T16:27:32.800Z,62.70
2017-09-01T16:30:00.332Z,62.00
2017-09-01T16:32:28.092Z,62.70
2017-09-01T16:34:55.916Z,65.30
2017-09-01T16:37:23.427Z,63.60
2017-09-01T16:39:50.887Z,63.40
2017-09-01T16:42:18.642Z,63.70
2017-09-01T16:44:46.111Z,62.80
2017-09-01T16:47:13.672Z,64.00
2017-09-01T16:49:41.411Z,62.00
2017-09-01T16:52:08.876Z,63.70
2017-09-01T16:54:36.400Z,63.70
2017-09-01T16:57:04.841Z,64.20
2017-09-01T16:59:32.309Z,63.20
2017-09-01T17:01:59.820Z,62.80
2017-09-01T17:04:27.304Z,61.60
2017-09-01T17:06:54.883Z,64.00
2017-09-01T17:09:22.344Z,64.20
2017-09-01T17:11:49.838Z,65.20
2017-09-01T17:14:17.298Z,65.00
2017-09-01T17:16:45.088Z,64.70
2017-09-01T17:19:12.632Z,64.80
2017-09-01T17:21:40.088Z,65.70
2017-09-01T17:24:07.600Z,66.70
2017-09-01T17:26:35.132Z,66.70
2017-09-01T17:29:02.659Z,65.30
2017-09-01T17:31:30.474Z,65.10
2017-09-01T17:33:57.935Z,65.60
2017-09-01T17:36:26.060Z,64.50
2017-09-01T17:38:53.607Z,64.80
2017-09-01T17:41:21.077Z,65.40
2017-09-01T17:43:50.340Z,66.50
2017-09-01T17:46:17.940Z,65.60
2017-09-01T17:48:45.395Z,65.30
2017-09-01T17:51:12.939Z,66.10
2017-09-01T17:53:40.427Z,66.30
2017-09-01T17:56:07.950Z,66.00
2017-09-01T17:58:35.711Z,67.30
2017-09-01T18:01:03.430Z,67.50
2017-09-01T18:03:31.002Z,67.40
2017-09-01T18:05:58.899Z,68.60
2017-09-01T18:08:26.399Z,69.10
2017-09-01T18:10:54.024Z,69.20
2017-09-01T18:13:21.792Z,69.40
2017-09-01T18:15:49.253Z,69.70
2017-09-01T18:18:16.725Z,68.20
2017-09-01T18:20:44.257Z,68.90
2017-09-01T18:23:11.722Z,70.40
2017-09-01T18:25:39.195Z,71.20
2017-09-01T18:28:07.460Z,71.40
2017-09-01T18:30:35.069Z,72.00
2017-09-01T18:33:02.552Z,71.70
2017-09-01T18:35:30.023Z,71.50
2017-09-01T18:37:57.576Z,72.50
2017-09-01T18:40:25.054Z,72.60
2017-09-01T18:42:53.302Z,72.20
2017-09-01T18:45:20.774Z,72.10
2017-09-01T18:47:48.227Z,73.20
2017-09-01T18:50:15.695Z,73.20
2017-09-01T18:52:43.251Z,74.60
2017-09-01T18:55:10.719Z,73.70
2017-09-01T18:57:38.268Z,75.20
2017-09-01T19:00:06.741Z,75.10
2017-09-01T19:02:34.294Z,76.00
2017-09-01T19:05:02.131Z,75.60
2017-09-01T19:07:29.591Z,76.20
2017-09-01T19:09:57.072Z,76.80
2017-09-01T19:12:24.539Z,77.00
2017-09-01T19:14:52.047Z,77.40
2017-09-01T19:17:19.539Z,77.00
2017-09-01T19:19:47.024Z,77.30
2017-09-01T19:22:14.479Z,77.30
2017-09-01T19:24:42.027Z,77.40
2017-09-01T19:27:09.512Z,77.50
2017-09-01T19:29:37.039Z,77.30
2017-09-01T19:32:04.507Z,76.40
2017-09-01T19:34:31.997Z,76.10
2017-09-01T19:36:59.487Z,74.30
2017-09-01T19:39:27.064Z,74.90
2017-09-01T19:41:54.600Z,75.00
2017-09-01T19:44:22.232Z,74.90
2017-09-01T19:46:49.759Z,74.00
2017-09-01T19:49:17.235Z,74.20
2017-09-01T19:51:44.705Z,74.50
2017-09-01T19:54:12.186Z,74.90
2017-09-01T19:56:39.683Z,74.80
2017-09-01T19:59:07.921Z,76.00
2017-09-01T20:01:35.394Z,75.90
2017-09-01T20:04:02.851Z,75.40
2017-09-01T20:06:30.322Z,76.00
2017-09-01T20:08:57.791Z,75.90
2017-09-01T20:11:25.312Z,76.80
2017-09-01T20:13:52.775Z,76.80
2017-09-01T20:16:20.251Z,76.90
2017-09-01T20:18:48.537Z,76.50
2017-09-01T20:21:16.075Z,77.00
2017-09-01T20:23:43.799Z,76.60
2017-09-01T20:26:11.287Z,76.80
2017-09-01T20:28:38.865Z,77.10
2017-09-01T20:31:06.449Z,77.60
2017-09-01T20:33:33.919Z,78.30
2017-09-01T20:36:01.375Z,78.70
2017-09-01T20:38:29.138Z,79.10
2017-09-01T20:40:56.682Z,78.90
2017-09-01T20:43:24.165Z,79.30
2017-09-01T20:45:51.964Z,79.00
2017-09-01T20:48:19.536Z,79.20
2017-09-01T20:50:46.996Z,79.50
2017-09-01T20:53:15.251Z,79.70
2017-09-01T20:55:42.707Z,79.70
2017-09-01T20:58:10.173Z,79.70
2017-09-01T21:00:37.650Z,79.80
2017-09-01T21:03:05.142Z,80.00
2017-09-01T21:05:32.743Z,80.00
2017-09-01T21:08:00.507Z,80.00
2017-09-01T21:10:27.967Z,80.10
2017-09-01T21:12:55.536Z,80.70
2017-09-01T21:15:22.998Z,80.80
2017-09-01T21:17:51.259Z,81.30
2017-09-01T21:20:18.799Z,81.20
2017-09-01T21:22:46.295Z,81.40
2017-09-01T21:25:13.760Z,81.90
2017-09-01T21:27:41.239Z,81.70
2017-09-01T21:30:08.931Z,82.00
2017-09-01T21:32:36.401Z,81.80
2017-09-01T21:35:03.964Z,81.90
2017-09-01T21:37:31.515Z,82.20
2017-09-01T21:39:58.991Z,82.20
2017-09-01T21:42:26.459Z,82.60
2017-09-01T21:44:53.991Z,82.80
2017-09-01T21:47:21.448Z,82.90
2017-09-01T21:49:49.039Z,83.10
2017-09-01T21:52:16.516Z,83.00
2017-09-01T21:54:44.028Z,83.50
2017-09-01T21:57:11.488Z,83.60
2017-09-01T21:59:38.954Z,83.30
2017-09-01T22:02:06.488Z,83.20
2017-09-01T22:04:33.946Z,83.60
2017-09-01T22:07:01.503Z,83.80
2017-09-01T22:09:29.682Z,84.00
2017-09-01T22:11:57.143Z,84.10
2017-09-01T22:14:24.703Z,84.30
2017-09-01T22:16:52.259Z,84.80
2017-09-01T22:19:25.532Z,85.00
2017-09-01T22:21:53.015Z,85.50
2017-09-01T22:24:20.484Z,85.50
2017-09-01T22:26:47.951Z,85.70
2017-09-01T22:29:15.487Z,85.60
2017-09-01T22:31:43.045Z,85.70
2017-09-01T22:34:10.520Z,86.20
2017-09-01T22:36:37.974Z,86.70
2017-09-01T22:39:06.273Z,87.80
2017-09-01T22:41:33.788Z,87.80
2017-09-01T22:44:01.335Z,87.40
2017-09-01T22:46:28.795Z,86.90
2017-09-01T22:48:57.070Z,86.90
2017-09-01T22:51:24.526Z,86.90
2017-09-01T22:53:52.086Z,87.00
2017-09-01T22:56:19.551Z,87.10
2017-09-01T22:58:47.007Z,86.90
2017-09-01T23:01:14.572Z,86.50
2017-09-01T23:03:42.128Z,86.50
2017-09-01T23:06:09.683Z,86.40
2017-09-01T23:08:37.139Z,86.30
2017-09-01T23:11:04.602Z,86.30
2017-09-01T23:13:32.167Z,86.30
2017-09-01T23:16:00.432Z,86.10
2017-09-01T23:18:28.612Z,85.90
2017-09-01T23:20:56.070Z,86.40
2017-09-01T23:23:24.333Z,87.10
2017-09-01T23:25:51.799Z,86.20
2017-09-01T23:28:19.276Z,86.60
2017-09-01T23:30:47.499Z,86.90
2017-09-01T23:33:15.075Z,86.90
2017-09-01T23:35:42.534Z,87.20
2017-09-01T23:38:10.088Z,87.60
2017-09-01T23:40:37.556Z,87.60
2017-09-01T23:43:05.103Z,87.40
2017-09-01T23:45:32.567Z,87.40
2017-09-01T23:48:00.131Z,87.50
2017-09-01T23:50:27.599Z,87.60
2017-09-01T23:52:55.144Z,87.60
2017-09-01T23:55:22.691Z,88.00
2017-09-01T23:57:50.208Z,88.00
